sensor_id;sensor_type;location;lat;lon;timestamp;pressure;altitude;pressure_sealevel;temperature;humidity
60019;BME280;45870;42.528;26.740;2023-04-26T00:02:11;98686.25;;;18.63;47.34
60019;BME280;45870;42.528;26.740;2023-04-26T00:04:38;98697.50;;;18.83;46.94
60019;BME280;45870;42.528;26.740;2023-04-26T00:07:04;98658.88;;;18.40;47.99
60019;BME280;45870;42.528;26.740;2023-04-26T00:09:31;98685.03;;;17.97;49.71
60019;BME280;45870;42.528;26.740;2023-04-26T00:11:57;98684.38;;;17.64;49.93
60019;BME280;45870;42.528;26.740;2023-04-26T00:14:22;98701.34;;;17.61;49.57
60019;BME280;45870;42.528;26.740;2023-04-26T00:16:48;98651.19;;;18.20;47.72
60019;BME280;45870;42.528;26.740;2023-04-26T00:19:14;98689.06;;;18.00;48.35
60019;BME280;45870;42.528;26.740;2023-04-26T00:21:40;98699.38;;;18.03;48.85
60019;BME280;45870;42.528;26.740;2023-04-26T00:24:06;98682.97;;;18.52;46.85
60019;BME280;45870;42.528;26.740;2023-04-26T00:26:32;98697.94;;;18.77;47.06
60019;BME280;45870;42.528;26.740;2023-04-26T00:29:00;98668.47;;;18.96;46.39
60019;BME280;45870;42.528;26.740;2023-04-26T00:31:26;98695.28;;;19.16;46.17
60019;BME280;45870;42.528;26.740;2023-04-26T00:33:52;98699.22;;;19.02;46.58
60019;BME280;45870;42.528;26.740;2023-04-26T00:36:17;98703.97;;;17.80;48.29
60019;BME280;45870;42.528;26.740;2023-04-26T00:38:45;98673.72;;;17.90;47.98
60019;BME280;45870;42.528;26.740;2023-04-26T00:41:11;98701.59;;;18.72;47.19
60019;BME280;45870;42.528;26.740;2023-04-26T00:43:37;98671.13;;;18.57;47.76
60019;BME280;45870;42.528;26.740;2023-04-26T00:46:04;98691.16;;;18.74;47.71
60019;BME280;45870;42.528;26.740;2023-04-26T00:48:30;98693.25;;;19.00;47.22
60019;BME280;45870;42.528;26.740;2023-04-26T00:50:56;98688.25;;;19.32;45.78
60019;BME280;45870;42.528;26.740;2023-04-26T00:53:22;98690.19;;;19.63;45.02
60019;BME280;45870;42.528;26.740;2023-04-26T00:55:48;98673.78;;;19.63;44.80
60019;BME280;45870;42.528;26.740;2023-04-26T00:58:16;98633.53;;;19.32;44.90
60019;BME280;45870;42.528;26.740;2023-04-26T01:00:43;98699.28;;;19.41;46.17
60019;BME280;45870;42.528;26.740;2023-04-26T01:03:09;98696.56;;;19.50;46.34
60019;BME280;45870;42.528;26.740;2023-04-26T01:05:36;98700.03;;;19.72;46.07
60019;BME280;45870;42.528;26.740;2023-04-26T01:08:02;98692.66;;;19.90;45.72
60019;BME280;45870;42.528;26.740;2023-04-26T01:10:31;98694.88;;;19.71;46.16
60019;BME280;45870;42.528;26.740;2023-04-26T01:12:57;98697.94;;;19.78;46.23
60019;BME280;45870;42.528;26.740;2023-04-26T01:15:25;98687.78;;;19.70;46.28
60019;BME280;45870;42.528;26.740;2023-04-26T01:17:52;98622.94;;;19.31;46.18
60019;BME280;45870;42.528;26.740;2023-04-26T01:20:19;98666.84;;;19.65;46.47
60019;BME280;45870;42.528;26.740;2023-04-26T01:22:45;98684.22;;;19.30;47.25
60019;BME280;45870;42.528;26.740;2023-04-26T01:25:11;98677.44;;;18.30;49.75
60019;BME280;45870;42.528;26.740;2023-04-26T01:27:37;98669.44;;;19.39;47.07
60019;BME280;45870;42.528;26.740;2023-04-26T01:30:03;98681.00;;;19.59;46.65
60019;BME280;45870;42.528;26.740;2023-04-26T01:32:29;98675.66;;;19.54;47.05
60019;BME280;45870;42.528;26.740;2023-04-26T01:34:55;98685.84;;;19.70;46.70
60019;BME280;45870;42.528;26.740;2023-04-26T01:37:21;98657.47;;;19.58;46.91
60019;BME280;45870;42.528;26.740;2023-04-26T01:39:46;98680.94;;;20.07;46.02
60019;BME280;45870;42.528;26.740;2023-04-26T01:42:12;98681.25;;;19.97;46.43
60019;BME280;45870;42.528;26.740;2023-04-26T01:44:38;98687.88;;;20.04;46.45
60019;BME280;45870;42.528;26.740;2023-04-26T01:47:04;98678.34;;;20.10;46.25
60019;BME280;45870;42.528;26.740;2023-04-26T01:49:30;98676.22;;;19.99;46.41
60019;BME280;45870;42.528;26.740;2023-04-26T01:51:57;98635.75;;;19.61;46.55
60019;BME280;45870;42.528;26.740;2023-04-26T01:54:23;98658.22;;;19.98;46.25
60019;BME280;45870;42.528;26.740;2023-04-26T01:56:49;98665.41;;;18.98;48.37
60019;BME280;45870;42.528;26.740;2023-04-26T01:59:15;98656.88;;;19.69;46.59
60019;BME280;45870;42.528;26.740;2023-04-26T02:01:41;98651.63;;;20.41;44.71
60019;BME280;45870;42.528;26.740;2023-04-26T02:04:08;98657.41;;;19.97;45.34
60019;BME280;45870;42.528;26.740;2023-04-26T02:06:34;98636.94;;;19.86;45.56
60019;BME280;45870;42.528;26.740;2023-04-26T02:09:00;98643.81;;;19.75;46.05
60019;BME280;45870;42.528;26.740;2023-04-26T02:11:25;98640.00;;;20.02;45.39
60019;BME280;45870;42.528;26.740;2023-04-26T02:13:52;98647.75;;;19.91;45.08
60019;BME280;45870;42.528;26.740;2023-04-26T02:16:17;98642.72;;;19.28;46.16
60019;BME280;45870;42.528;26.740;2023-04-26T02:18:43;98634.09;;;18.51;48.09
60019;BME280;45870;42.528;26.740;2023-04-26T02:21:10;98647.56;;;17.75;50.73
60019;BME280;45870;42.528;26.740;2023-04-26T02:23:36;98636.06;;;18.59;48.44
60019;BME280;45870;42.528;26.740;2023-04-26T02:26:02;98633.47;;;19.15;46.97
60019;BME280;45870;42.528;26.740;2023-04-26T02:28:29;98643.78;;;19.49;46.16
60019;BME280;45870;42.528;26.740;2023-04-26T02:30:54;98610.47;;;19.56;45.37
60019;BME280;45870;42.528;26.740;2023-04-26T02:33:23;98652.03;;;19.66;45.74
60019;BME280;45870;42.528;26.740;2023-04-26T02:35:49;98649.59;;;19.56;45.91
60019;BME280;45870;42.528;26.740;2023-04-26T02:38:14;98656.38;;;19.67;45.88
60019;BME280;45870;42.528;26.740;2023-04-26T02:40:40;98664.06;;;19.48;46.46
60019;BME280;45870;42.528;26.740;2023-04-26T02:43:06;98660.75;;;19.85;45.82
60019;BME280;45870;42.528;26.740;2023-04-26T02:45:31;98662.34;;;19.78;46.03
60019;BME280;45870;42.528;26.740;2023-04-26T02:47:57;98659.34;;;20.14;44.73
60019;BME280;45870;42.528;26.740;2023-04-26T02:50:22;98659.97;;;18.75;48.03
60019;BME280;45870;42.528;26.740;2023-04-26T02:52:48;98603.50;;;18.71;47.70
60019;BME280;45870;42.528;26.740;2023-04-26T02:55:14;98641.69;;;18.18;50.17
60019;BME280;45870;42.528;26.740;2023-04-26T02:57:39;98655.34;;;19.07;48.09
60019;BME280;45870;42.528;26.740;2023-04-26T03:00:06;98661.72;;;19.81;45.88
60019;BME280;45870;42.528;26.740;2023-04-26T03:02:32;98626.28;;;19.76;46.06
60019;BME280;45870;42.528;26.740;2023-04-26T03:04:58;98646.59;;;20.09;45.72
60019;BME280;45870;42.528;26.740;2023-04-26T03:07:23;98658.03;;;20.03;46.13
60019;BME280;45870;42.528;26.740;2023-04-26T03:09:49;98657.41;;;19.97;46.21
60019;BME280;45870;42.528;26.740;2023-04-26T03:12:15;98649.50;;;20.04;46.15
60019;BME280;45870;42.528;26.740;2023-04-26T03:14:40;98659.03;;;19.98;46.34
60019;BME280;45870;42.528;26.740;2023-04-26T03:17:06;98654.69;;;20.31;45.03
60019;BME280;45870;42.528;26.740;2023-04-26T03:19:32;98657.63;;;20.43;45.09
60019;BME280;45870;42.528;26.740;2023-04-26T03:21:58;98659.38;;;20.48;45.30
60019;BME280;45870;42.528;26.740;2023-04-26T03:24:24;98649.38;;;20.26;45.56
60019;BME280;45870;42.528;26.740;2023-04-26T03:26:49;98665.31;;;20.24;46.11
60019;BME280;45870;42.528;26.740;2023-04-26T03:29:15;98621.16;;;20.17;45.83
60019;BME280;45870;42.528;26.740;2023-04-26T03:31:41;98620.66;;;20.24;45.81
60019;BME280;45870;42.528;26.740;2023-04-26T03:34:07;98665.81;;;20.52;45.70
60019;BME280;45870;42.528;26.740;2023-04-26T03:36:33;98629.38;;;20.34;45.51
60019;BME280;45870;42.528;26.740;2023-04-26T03:38:59;98675.31;;;20.63;45.88
60019;BME280;45870;42.528;26.740;2023-04-26T03:41:25;98664.88;;;20.39;46.42
60019;BME280;45870;42.528;26.740;2023-04-26T03:43:50;98667.94;;;20.47;46.30
60019;BME280;45870;42.528;26.740;2023-04-26T03:46:16;98664.34;;;20.63;46.09
60019;BME280;45870;42.528;26.740;2023-04-26T03:48:42;98670.16;;;20.79;45.46
60019;BME280;45870;42.528;26.740;2023-04-26T03:51:08;98665.59;;;20.83;45.63
60019;BME280;45870;42.528;26.740;2023-04-26T03:53:33;98668.66;;;20.90;45.35
60019;BME280;45870;42.528;26.740;2023-04-26T03:55:59;98666.25;;;20.80;45.58
60019;BME280;45870;42.528;26.740;2023-04-26T03:58:25;98668.66;;;20.90;45.88
60019;BME280;45870;42.528;26.740;2023-04-26T04:00:51;98665.28;;;20.76;46.08
60019;BME280;45870;42.528;26.740;2023-04-26T04:03:17;98669.66;;;20.85;45.90
60019;BME280;45870;42.528;26.740;2023-04-26T04:05:43;98666.25;;;20.88;45.86
60019;BME280;45870;42.528;26.740;2023-04-26T04:08:09;98673.97;;;20.95;45.95
60019;BME280;45870;42.528;26.740;2023-04-26T04:10:35;98676.72;;;21.04;45.58
60019;BME280;45870;42.528;26.740;2023-04-26T04:13:02;98682.97;;;21.04;46.35
60019;BME280;45870;42.528;26.740;2023-04-26T04:15:27;98651.72;;;20.88;46.36
60019;BME280;45870;42.528;26.740;2023-04-26T04:17:53;98684.63;;;21.14;46.64
60019;BME280;45870;42.528;26.740;2023-04-26T04:20:19;98689.75;;;21.24;46.74
60019;BME280;45870;42.528;26.740;2023-04-26T04:22:46;98693.09;;;21.38;46.70
60019;BME280;45870;42.528;26.740;2023-04-26T04:25:11;98697.19;;;20.98;47.00
60019;BME280;45870;42.528;26.740;2023-04-26T04:27:39;98699.47;;;20.01;48.55
60019;BME280;45870;42.528;26.740;2023-04-26T04:30:07;98682.38;;;20.04;49.26
60019;BME280;45870;42.528;26.740;2023-04-26T04:32:35;98684.63;;;20.79;47.62
60019;BME280;45870;42.528;26.740;2023-04-26T04:35:01;98706.81;;;21.38;46.31
60019;BME280;45870;42.528;26.740;2023-04-26T04:37:27;98702.53;;;21.87;44.72
60019;BME280;45870;42.528;26.740;2023-04-26T04:39:53;98705.16;;;21.46;45.41
60019;BME280;45870;42.528;26.740;2023-04-26T04:42:19;98655.31;;;20.71;46.65
60019;BME280;45870;42.528;26.740;2023-04-26T04:44:45;98702.59;;;21.40;46.25
60019;BME280;45870;42.528;26.740;2023-04-26T04:47:12;98705.97;;;21.75;45.33
60019;BME280;45870;42.528;26.740;2023-04-26T04:49:38;98654.22;;;21.27;45.83
60019;BME280;45870;42.528;26.740;2023-04-26T04:52:04;98712.16;;;21.72;45.99
60019;BME280;45870;42.528;26.740;2023-04-26T04:54:31;98718.47;;;21.64;45.76
60019;BME280;45870;42.528;26.740;2023-04-26T04:56:56;98727.34;;;21.70;46.14
60019;BME280;45870;42.528;26.740;2023-04-26T04:59:22;98728.53;;;21.89;46.06
60019;BME280;45870;42.528;26.740;2023-04-26T05:01:49;98729.28;;;21.31;47.34
60019;BME280;45870;42.528;26.740;2023-04-26T05:04:14;98722.03;;;21.01;47.87
60019;BME280;45870;42.528;26.740;2023-04-26T05:06:40;98724.91;;;19.93;50.93
60019;BME280;45870;42.528;26.740;2023-04-26T05:09:07;98730.66;;;19.83;50.87
60019;BME280;45870;42.528;26.740;2023-04-26T05:11:33;98719.88;;;19.86;51.19
60019;BME280;45870;42.528;26.740;2023-04-26T05:13:59;98727.44;;;18.88;53.73
60019;BME280;45870;42.528;26.740;2023-04-26T05:16:25;98728.75;;;18.91;54.01
60019;BME280;45870;42.528;26.740;2023-04-26T05:18:51;98727.94;;;18.90;53.75
60019;BME280;45870;42.528;26.740;2023-04-26T05:21:16;98692.41;;;18.68;54.16
60019;BME280;45870;42.528;26.740;2023-04-26T05:23:42;98727.69;;;19.01;53.80
60019;BME280;45870;42.528;26.740;2023-04-26T05:26:13;98725.38;;;19.16;53.87
60019;BME280;45870;42.528;26.740;2023-04-26T05:28:39;98735.47;;;20.42;50.18
60019;BME280;45870;42.528;26.740;2023-04-26T05:31:05;98730.56;;;21.25;47.92
60019;BME280;45870;42.528;26.740;2023-04-26T05:33:31;98735.22;;;21.42;47.73
60019;BME280;45870;42.528;26.740;2023-04-26T05:35:57;98734.78;;;21.69;47.02
60019;BME280;45870;42.528;26.740;2023-04-26T05:38:23;98728.22;;;20.64;49.08
60019;BME280;45870;42.528;26.740;2023-04-26T05:40:49;98729.28;;;20.11;50.43
60019;BME280;45870;42.528;26.740;2023-04-26T05:43:15;98734.44;;;18.23;55.38
60019;BME280;45870;42.528;26.740;2023-04-26T05:45:49;98690.81;;;19.29;51.63
60019;BME280;45870;42.528;26.740;2023-04-26T05:48:17;98736.69;;;19.01;53.15
60019;BME280;45870;42.528;26.740;2023-04-26T05:50:43;98747.63;;;19.01;53.54
60019;BME280;45870;42.528;26.740;2023-04-26T05:53:08;98739.03;;;18.50;55.06
60019;BME280;45870;42.528;26.740;2023-04-26T05:55:34;98742.31;;;19.49;52.39
60019;BME280;45870;42.528;26.740;2023-04-26T05:57:59;98740.50;;;19.84;51.20
60019;BME280;45870;42.528;26.740;2023-04-26T06:00:25;98736.53;;;20.07;50.71
60019;BME280;45870;42.528;26.740;2023-04-26T06:02:51;98723.19;;;21.00;48.37
60019;BME280;45870;42.528;26.740;2023-04-26T06:05:17;98722.53;;;21.03;48.27
60019;BME280;45870;42.528;26.740;2023-04-26T06:07:42;98730.03;;;19.47;52.06
60019;BME280;45870;42.528;26.740;2023-04-26T06:10:09;98742.41;;;20.31;50.21
60019;BME280;45870;42.528;26.740;2023-04-26T06:12:35;98710.50;;;20.35;49.81
60019;BME280;45870;42.528;26.740;2023-04-26T06:15:00;98735.97;;;19.79;51.57
60019;BME280;45870;42.528;26.740;2023-04-26T06:17:26;98734.59;;;20.08;51.39
60019;BME280;45870;42.528;26.740;2023-04-26T06:19:52;98727.66;;;19.54;53.06
60019;BME280;45870;42.528;26.740;2023-04-26T06:22:19;98734.28;;;19.61;52.59
60019;BME280;45870;42.528;26.740;2023-04-26T06:24:44;98732.31;;;19.22;53.95
60019;BME280;45870;42.528;26.740;2023-04-26T06:27:10;98728.84;;;20.26;52.11
60019;BME280;45870;42.528;26.740;2023-04-26T06:29:36;98728.06;;;20.34;52.48
60019;BME280;45870;42.528;26.740;2023-04-26T06:32:01;98736.44;;;20.55;51.97
60019;BME280;45870;42.528;26.740;2023-04-26T06:34:27;98736.97;;;19.92;53.74
60019;BME280;45870;42.528;26.740;2023-04-26T06:36:53;98722.44;;;18.10;58.29
60019;BME280;45870;42.528;26.740;2023-04-26T06:39:18;98732.69;;;20.25;54.09
60019;BME280;45870;42.528;26.740;2023-04-26T06:41:44;98734.09;;;19.97;54.05
60019;BME280;45870;42.528;26.740;2023-04-26T06:44:12;98729.34;;;20.28;52.86
60019;BME280;45870;42.528;26.740;2023-04-26T06:46:38;98702.69;;;20.20;52.95
60019;BME280;45870;42.528;26.740;2023-04-26T06:49:03;98729.34;;;20.88;49.96
60019;BME280;45870;42.528;26.740;2023-04-26T06:51:29;98734.59;;;22.95;42.97
60019;BME280;45870;42.528;26.740;2023-04-26T06:53:55;98742.84;;;20.25;48.51
60019;BME280;45870;42.528;26.740;2023-04-26T06:56:23;98752.91;;;21.62;45.08
60019;BME280;45870;42.528;26.740;2023-04-26T06:59:03;98741.59;;;23.25;41.93
60019;BME280;45870;42.528;26.740;2023-04-26T07:01:30;98739.50;;;23.22;40.32
60019;BME280;45870;42.528;26.740;2023-04-26T07:04:03;98746.50;;;23.77;38.37
60019;BME280;45870;42.528;26.740;2023-04-26T07:06:30;98760.44;;;22.40;40.00
60019;BME280;45870;42.528;26.740;2023-04-26T07:08:59;98744.28;;;21.80;42.51
60019;BME280;45870;42.528;26.740;2023-04-26T07:11:25;98743.53;;;23.70;38.20
60019;BME280;45870;42.528;26.740;2023-04-26T07:13:51;98735.81;;;22.44;39.69
60019;BME280;45870;42.528;26.740;2023-04-26T07:16:17;98740.66;;;22.47;42.10
60019;BME280;45870;42.528;26.740;2023-04-26T07:18:43;98727.81;;;24.19;35.27
60019;BME280;45870;42.528;26.740;2023-04-26T07:21:08;98741.44;;;23.55;38.79
60019;BME280;45870;42.528;26.740;2023-04-26T07:23:34;98742.03;;;24.85;36.26
60019;BME280;45870;42.528;26.740;2023-04-26T07:26:01;98701.78;;;25.27;33.85
60019;BME280;45870;42.528;26.740;2023-04-26T07:28:30;98748.91;;;25.34;35.11
60019;BME280;45870;42.528;26.740;2023-04-26T07:30:57;98748.06;;;26.78;31.74
60019;BME280;45870;42.528;26.740;2023-04-26T07:33:23;98752.06;;;26.27;33.32
60019;BME280;45870;42.528;26.740;2023-04-26T07:35:56;98747.16;;;26.90;30.56
60019;BME280;45870;42.528;26.740;2023-04-26T07:38:22;98745.72;;;23.31;36.70
60019;BME280;45870;42.528;26.740;2023-04-26T07:40:48;98736.41;;;22.91;38.53
60019;BME280;45870;42.528;26.740;2023-04-26T07:43:15;98742.41;;;26.91;31.83
60019;BME280;45870;42.528;26.740;2023-04-26T07:45:41;98753.25;;;26.99;32.21
60019;BME280;45870;42.528;26.740;2023-04-26T07:48:07;98727.97;;;28.37;30.12
60019;BME280;45870;42.528;26.740;2023-04-26T07:50:33;98745.44;;;29.71;27.74
60019;BME280;45870;42.528;26.740;2023-04-26T07:52:58;98700.78;;;26.68;31.38
60019;BME280;45870;42.528;26.740;2023-04-26T07:55:24;98747.38;;;28.93;28.82
60019;BME280;45870;42.528;26.740;2023-04-26T07:57:50;98748.63;;;27.91;30.32
60019;BME280;45870;42.528;26.740;2023-04-26T08:00:17;98754.09;;;23.92;37.98
60019;BME280;45870;42.528;26.740;2023-04-26T08:02:44;98741.41;;;24.52;34.71
60019;BME280;45870;42.528;26.740;2023-04-26T08:05:13;98691.91;;;26.97;30.14
60019;BME280;45870;42.528;26.740;2023-04-26T08:07:39;98748.78;;;24.35;36.13
60019;BME280;45870;42.528;26.740;2023-04-26T08:10:06;98718.88;;;22.96;38.26
60019;BME280;45870;42.528;26.740;2023-04-26T08:12:33;98740.50;;;24.88;35.78
60019;BME280;45870;42.528;26.740;2023-04-26T08:14:59;98747.63;;;27.76;30.25
60019;BME280;45870;42.528;26.740;2023-04-26T08:17:26;98749.31;;;25.80;31.71
60019;BME280;45870;42.528;26.740;2023-04-26T08:19:51;98748.81;;;27.56;29.41
60019;BME280;45870;42.528;26.740;2023-04-26T08:22:17;98740.69;;;27.89;29.68
60019;BME280;45870;42.528;26.740;2023-04-26T08:24:51;98735.66;;;27.72;30.04
60019;BME280;45870;42.528;26.740;2023-04-26T08:27:16;98694.31;;;28.12;27.66
60019;BME280;45870;42.528;26.740;2023-04-26T08:29:43;98746.50;;;24.38;36.74
60019;BME280;45870;42.528;26.740;2023-04-26T08:32:09;98737.59;;;25.24;34.54
60019;BME280;45870;42.528;26.740;2023-04-26T08:34:35;98736.88;;;25.86;32.31
60019;BME280;45870;42.528;26.740;2023-04-26T08:37:00;98737.19;;;27.47;29.43
60019;BME280;45870;42.528;26.740;2023-04-26T08:39:26;98738.78;;;27.70;29.45
60019;BME280;45870;42.528;26.740;2023-04-26T08:41:53;98747.13;;;24.99;35.63
60019;BME280;45870;42.528;26.740;2023-04-26T08:44:23;98736.59;;;25.60;31.86
60019;BME280;45870;42.528;26.740;2023-04-26T08:51:52;98737.06;;;26.12;31.65
60019;BME280;45870;42.528;26.740;2023-04-26T08:54:20;98739.56;;;24.96;34.20
60019;BME280;45870;42.528;26.740;2023-04-26T08:56:46;98735.41;;;26.43;31.74
60019;BME280;45870;42.528;26.740;2023-04-26T08:59:13;98742.09;;;25.91;34.16
60019;BME280;45870;42.528;26.740;2023-04-26T09:01:39;98734.53;;;25.57;32.97
60019;BME280;45870;42.528;26.740;2023-04-26T09:04:07;98739.84;;;23.66;36.04
60019;BME280;45870;42.528;26.740;2023-04-26T09:06:33;98735.56;;;23.44;37.04
60019;BME280;45870;42.528;26.740;2023-04-26T09:09:02;98725.38;;;25.25;34.37
60019;BME280;45870;42.528;26.740;2023-04-26T09:11:29;98739.09;;;24.66;36.38
60019;BME280;45870;42.528;26.740;2023-04-26T09:13:56;98738.53;;;26.06;34.64
60019;BME280;45870;42.528;26.740;2023-04-26T09:16:37;98747.91;;;26.71;32.49
60019;BME280;45870;42.528;26.740;2023-04-26T09:19:02;98742.13;;;27.79;30.27
60019;BME280;45870;42.528;26.740;2023-04-26T09:21:28;98737.97;;;27.70;29.59
60019;BME280;45870;42.528;26.740;2023-04-26T09:23:58;98737.84;;;25.78;33.33
60019;BME280;45870;42.528;26.740;2023-04-26T09:26:24;98728.13;;;24.17;36.37
60019;BME280;45870;42.528;26.740;2023-04-26T09:29:10;98719.41;;;24.15;38.05
60019;BME280;45870;42.528;26.740;2023-04-26T09:31:44;98712.16;;;25.62;33.39
60019;BME280;45870;42.528;26.740;2023-04-26T09:34:12;98718.16;;;25.20;36.44
60019;BME280;45870;42.528;26.740;2023-04-26T09:36:52;98716.50;;;23.06;37.27
60019;BME280;45870;42.528;26.740;2023-04-26T09:39:37;98717.34;;;23.88;37.41
60019;BME280;45870;42.528;26.740;2023-04-26T09:42:05;98723.09;;;23.83;36.46
60019;BME280;45870;42.528;26.740;2023-04-26T09:44:32;98718.91;;;25.05;34.17
60019;BME280;45870;42.528;26.740;2023-04-26T09:47:04;98647.41;;;27.09;30.39
60019;BME280;45870;42.528;26.740;2023-04-26T09:49:32;98677.84;;;23.84;36.02
60019;BME280;45870;42.528;26.740;2023-04-26T09:52:03;98719.81;;;27.30;30.22
60019;BME280;45870;42.528;26.740;2023-04-26T09:54:46;98719.78;;;24.94;33.37
60019;BME280;45870;42.528;26.740;2023-04-26T09:57:13;98720.22;;;27.29;31.30
60019;BME280;45870;42.528;26.740;2023-04-26T09:59:43;98713.88;;;29.93;25.46
60019;BME280;45870;42.528;26.740;2023-04-26T10:02:20;98709.78;;;29.36;27.96
60019;BME280;45870;42.528;26.740;2023-04-26T10:04:50;98723.75;;;26.33;31.22
60019;BME280;45870;42.528;26.740;2023-04-26T10:07:19;98710.66;;;27.26;30.25
60019;BME280;45870;42.528;26.740;2023-04-26T10:09:45;98694.94;;;27.11;29.72
60019;BME280;45870;42.528;26.740;2023-04-26T10:12:16;98713.00;;;28.45;30.35
60019;BME280;45870;42.528;26.740;2023-04-26T10:14:43;98659.34;;;23.97;34.07
60019;BME280;45870;42.528;26.740;2023-04-26T10:17:09;98711.56;;;25.68;29.31
60019;BME280;45870;42.528;26.740;2023-04-26T10:19:43;98707.44;;;25.62;32.34
60019;BME280;45870;42.528;26.740;2023-04-26T10:22:20;98706.50;;;25.43;32.17
60019;BME280;45870;42.528;26.740;2023-04-26T10:24:48;98692.84;;;27.96;28.84
60019;BME280;45870;42.528;26.740;2023-04-26T10:27:14;98695.03;;;24.69;33.80
60019;BME280;45870;42.528;26.740;2023-04-26T10:32:21;98684.13;;;24.09;39.09
60019;BME280;45870;42.528;26.740;2023-04-26T10:35:10;98676.59;;;23.69;36.11
60019;BME280;45870;42.528;26.740;2023-04-26T10:40:25;98647.66;;;24.67;35.44
60019;BME280;45870;42.528;26.740;2023-04-26T10:45:37;98633.28;;;23.21;37.55
60019;BME280;45870;42.528;26.740;2023-04-26T10:48:16;98676.91;;;24.16;35.21
60019;BME280;45870;42.528;26.740;2023-04-26T10:59:11;98664.72;;;22.13;41.53
60019;BME280;45870;42.528;26.740;2023-04-26T11:01:38;98658.69;;;22.40;38.88
60019;BME280;45870;42.528;26.740;2023-04-26T11:04:09;98654.50;;;25.95;32.98
60019;BME280;45870;42.528;26.740;2023-04-26T11:06:51;98667.59;;;25.79;31.52
60019;BME280;45870;42.528;26.740;2023-04-26T11:09:38;98659.84;;;26.39;33.67
60019;BME280;45870;42.528;26.740;2023-04-26T11:12:13;98663.84;;;25.40;32.48
60019;BME280;45870;42.528;26.740;2023-04-26T11:14:43;98663.38;;;23.99;39.62
60019;BME280;45870;42.528;26.740;2023-04-26T11:17:09;98667.66;;;25.35;32.90
60019;BME280;45870;42.528;26.740;2023-04-26T11:19:35;98664.78;;;25.48;32.32
60019;BME280;45870;42.528;26.740;2023-04-26T11:22:04;98655.75;;;24.08;37.59
60019;BME280;45870;42.528;26.740;2023-04-26T11:24:31;98661.41;;;24.79;34.88
60019;BME280;45870;42.528;26.740;2023-04-26T11:26:57;98655.25;;;27.49;29.91
60019;BME280;45870;42.528;26.740;2023-04-26T11:29:24;98651.91;;;27.40;30.98
60019;BME280;45870;42.528;26.740;2023-04-26T11:31:52;98652.44;;;25.26;31.82
60019;BME280;45870;42.528;26.740;2023-04-26T11:34:20;98660.56;;;26.36;33.80
60019;BME280;45870;42.528;26.740;2023-04-26T11:36:47;98656.56;;;24.89;33.10
60019;BME280;45870;42.528;26.740;2023-04-26T11:39:13;98659.91;;;24.02;34.62
60019;BME280;45870;42.528;26.740;2023-04-26T11:41:39;98651.84;;;24.09;36.59
60019;BME280;45870;42.528;26.740;2023-04-26T11:44:04;98486.56;;;23.09;35.03
60019;BME280;45870;42.528;26.740;2023-04-26T11:46:31;98647.66;;;23.75;36.77
60019;BME280;45870;42.528;26.740;2023-04-26T11:48:57;98641.34;;;24.39;36.34
60019;BME280;45870;42.528;26.740;2023-04-26T11:51:22;98646.78;;;24.11;37.01
60019;BME280;45870;42.528;26.740;2023-04-26T11:53:50;98649.81;;;25.49;35.99
60019;BME280;45870;42.528;26.740;2023-04-26T11:56:20;98590.88;;;23.47;36.26
60019;BME280;45870;42.528;26.740;2023-04-26T11:58:49;98649.31;;;23.19;37.83
60019;BME280;45870;42.528;26.740;2023-04-26T12:01:23;98649.03;;;23.81;37.52
60019;BME280;45870;42.528;26.740;2023-04-26T12:03:50;98647.94;;;24.10;37.66
60019;BME280;45870;42.528;26.740;2023-04-26T12:06:17;98631.28;;;24.59;34.80
60019;BME280;45870;42.528;26.740;2023-04-26T12:08:48;98651.16;;;23.15;37.13
60019;BME280;45870;42.528;26.740;2023-04-26T12:11:16;98651.78;;;25.17;34.93
60019;BME280;45870;42.528;26.740;2023-04-26T12:13:42;98650.44;;;26.43;32.71
60019;BME280;45870;42.528;26.740;2023-04-26T12:16:08;98646.81;;;24.23;37.60
60019;BME280;45870;42.528;26.740;2023-04-26T12:18:34;98643.00;;;24.04;39.56
60019;BME280;45870;42.528;26.740;2023-04-26T12:21:00;98645.44;;;24.05;36.46
60019;BME280;45870;42.528;26.740;2023-04-26T12:23:34;98641.19;;;24.75;35.85
60019;BME280;45870;42.528;26.740;2023-04-26T12:26:00;98636.41;;;22.54;40.63
60019;BME280;45870;42.528;26.740;2023-04-26T12:28:28;98642.84;;;23.48;39.09
60019;BME280;45870;42.528;26.740;2023-04-26T12:30:53;98641.53;;;24.46;37.17
60019;BME280;45870;42.528;26.740;2023-04-26T12:33:19;98636.53;;;23.48;41.31
60019;BME280;45870;42.528;26.740;2023-04-26T12:35:48;98643.41;;;22.52;42.31
60019;BME280;45870;42.528;26.740;2023-04-26T12:38:14;98639.97;;;22.87;42.91
60019;BME280;45870;42.528;26.740;2023-04-26T12:40:41;98644.28;;;22.76;41.68
60019;BME280;45870;42.528;26.740;2023-04-26T12:43:06;98643.63;;;22.26;43.44
60019;BME280;45870;42.528;26.740;2023-04-26T12:45:33;98632.59;;;23.24;42.40
60019;BME280;45870;42.528;26.740;2023-04-26T12:47:58;98632.78;;;22.95;42.25
60019;BME280;45870;42.528;26.740;2023-04-26T12:50:24;98639.72;;;22.68;42.10
60019;BME280;45870;42.528;26.740;2023-04-26T12:52:51;98636.59;;;22.70;41.35
60019;BME280;45870;42.528;26.740;2023-04-26T12:55:17;98633.78;;;22.58;42.37
60019;BME280;45870;42.528;26.740;2023-04-26T12:57:43;98627.47;;;22.78;39.80
60019;BME280;45870;42.528;26.740;2023-04-26T13:00:12;98615.50;;;23.31;41.18
60019;BME280;45870;42.528;26.740;2023-04-26T13:02:38;98616.47;;;22.78;41.20
60019;BME280;45870;42.528;26.740;2023-04-26T13:05:05;98618.75;;;23.57;41.20
60019;BME280;45870;42.528;26.740;2023-04-26T13:07:38;98577.53;;;22.34;41.95
60019;BME280;45870;42.528;26.740;2023-04-26T13:10:05;98614.16;;;22.80;41.77
60019;BME280;45870;42.528;26.740;2023-04-26T13:12:33;98606.81;;;22.18;41.34